Tiempo atmosférico en la estación meteorológica de Santervás de la Vega, Villapún, Palencia (985 m.)



Fecha
DESCASC
Temp. máxima en grados centígrados (hora)
DESCASC
Temp. mínima en grados centígrados (hora)
DESCASC
Temp. media en grados centígrados
DESCASC
Racha de viento máxima en m/sg (hora)
DESCASC
Velocidad máxima media en intervalos de 10 minutos(hora)
DESCASC
Precipitaciones diarias en mm
DESCASC
Precipitaciones de 00:00 a 06:00 en mm
DESCASC
Precipitaciones de 06:00 a 12:00 en mm
DESCASC
Precipitaciones de 12:00 a 18:00 en mm
DESCASC
Precipitaciones de 18:00 a 24:00 en mm
DESCASC
18-08-2019 25.6 (16:00) 11.2 (06:50) 18.4 10 (14:50) 5.83 (13:00) 0 0 0 0 0
17-08-2019 30.5 (17:20) 11.1 (07:20) 20.8 10 (16:40) 6.11 (16:40) 0 0 0 0 0
16-08-2019 30.3 (17:10) 12.1 (04:40) 21.2 10.28 (18:10) 6.11 (15:50) 0 0 0 0 0
15-08-2019 28.6 (18:00) 11.1 (00:00) 19.9 9.17 (15:50) 6.11 (19:10) 0 0 0 0 0
14-08-2019 28.8 (17:30) 9.9 (00:00) 19.3 8.06 (17:10) 4.72 (17:00) 0 0 0 0 0
13-08-2019 23.5 (18:30) 6.6 (00:00) 15 7.22 (17:30) 3.89 (02:00) 0 0 0 0 0
12-08-2019 20.5 (16:20) 5.5 (00:00) 13 9.72 (14:00) 6.11 (19:20) 0 0 0 0 0
11-08-2019 21.5 (18:00) 10.6 (00:00) 16.1 9.72 (20:30) 6.11 (21:00) 5.8 5.8 0 0 0
10-08-2019 24.5 (17:30) 12.4 (00:00) 18.4 8.06 (22:20) 4.72 (21:50) 0 0 0 0 0
09-08-2019 23.9 (16:40) 16 (00:00) 19.9 16.39 (16:10) 10.56 (15:50) 0.8 0 0.8 0 0
08-08-2019 26 (19:30) 13.7 (00:00) 19.8 12.22 (19:50) 8.33 (19:50) 0.2 0.2 0 0 0
07-08-2019 24.5 (14:40) 14.4 (00:00) 19.4 12.5 (15:40) 8.06 (15:40) 0.8 0 0 0 0.8
06-08-2019 27.7 (17:20) 11.6 (00:00) 19.7 7.5 (16:50) 4.72 (14:40) 0 0 0 0 0
05-08-2019 29.6 (17:40) 12.5 (00:00) 21.1 8.61 (15:20) 5 (15:20) 0 0 0 0 0
04-08-2019 30.3 (18:30) 14.2 (00:00) 22.2 9.72 (15:50) 6.11 (16:20) 0 0 0 0 0
03-08-2019 31.7 (17:10) 14.8 (00:00) 23.3 8.89 (16:20) 5 (14:50) 0 0 0 0 0
02-08-2019 29.5 (19:10) 10.4 (00:00) 19.9 7.22 (20:50) 4.72 (07:30) 0 0 0 0 0
01-08-2019 28.1 (17:40) 12.4 (00:00) 20.3 8.89 (20:00) 5.56 (20:00) 0 0 0 0 0
31-07-2019 24.5 (17:10) 9 (00:00) 16.8 8.06 (22:40) 5.83 (20:40) 0 0 0 0 0
30-07-2019 22.9 (17:40) 9.6 (00:00) 16.3 10.28 (18:50) 6.39 (19:00) 0 0 0 0 0
29-07-2019 23.4 (16:10) 7 (00:00) 15.2 10.83 (18:10) 6.67 (19:20) 0 0 0 0 0
28-07-2019 23.2 (18:30) 6 (00:00) 14.6 8.06 (18:00) 5 (18:20) 0 0 0 0 0
27-07-2019 18.8 (16:20) 10.4 (00:00) 14.6 8.89 (16:50) 5.83 (17:20) 8.4 1.4 6.6 0.4 0
26-07-2019 23.3 (16:20) 13.8 (00:00) 18.5 11.39 (16:50) 7.78 (17:10) 0.8 0 0.8 0 0
25-07-2019 30.6 (15:50) 15.1 (00:00) 22.9 12.78 (16:00) 7.78 (16:20) 0 0 0 0 0
24-07-2019 32.6 (17:10) 16.3 (00:00) 24.4 11.94 (15:50) 7.22 (15:50) 0 0 0 0 0
23-07-2019 32.3 (19:20) 16 (00:00) 24.1 13.61 (02:30) 7.22 (21:10) 0 0 0 0 0
22-07-2019 33.8 (19:30) 15.8 (00:00) 24.8 13.89 (20:20) 6.67 (20:20) 0.8 0 0 0 0.8
21-07-2019 30.8 (18:10) 13.9 (00:00) 22.3 9.17 (23:10) 6.11 (23:10) 0 0 0 0 0

Gráficas

Temp. máximas Temp. mínimas Temp. medias Precipitaciones Rachas de viento máximas Velocidades máximas media en intervalos de 10 minutos

Datos horarios

Fecha y hora oficial Temperatura (ºC) Velocidad del viento (km/h) Dirección del viento Racha (km/h) Dirección de racha Precipitación (mm) Presión (hPa) Tendencia (hPa) Humedad (%)
2019-08-19 23:00:00 12.9 19 Este 33 Este 0 -- -- 79
2019-08-19 22:00:00 13.3 22 Este 35 Este 0 -- -- 77
2019-08-19 21:00:00 14.2 20 Este 37 Este 0 -- -- 72
2019-08-19 20:00:00 16.3 22 Este 43 Este 0 -- -- 64
2019-08-19 19:00:00 17.3 23 Sudeste 35 Sudeste 0 -- -- 61
2019-08-19 18:00:00 18.6 22 Sudeste 33 Este 0 -- -- 57
2019-08-19 17:00:00 18.9 18 Este 32 Este 0 -- -- 56
2019-08-19 16:00:00 20.5 18 Sudeste 30 Este 0 -- -- 51
2019-08-19 15:00:00 19.9 16 Este 33 Sudeste 0 -- -- 52
2019-08-19 14:00:00 19.6 17 Este 30 Este 0 -- -- 53
2019-08-19 13:00:00 18.6 19 Sudeste 33 Sudeste 0 -- -- 57
2019-08-19 12:00:00 18.1 17 Este 33 Este 0 -- -- 59
2019-08-19 11:00:00 15.9 21 Este 34 Este 0 -- -- 67
2019-08-19 10:00:00 14.2 18 Este 30 Este 0 -- -- 74
2019-08-19 09:00:00 12.3 13 Este 19 Este 0 -- -- 82
2019-08-19 08:00:00 11.9 12 Sudeste 18 Sudeste 0 -- -- 85
2019-08-19 07:00:00 11.9 11 Este 22 Este 0 -- -- 85
2019-08-19 06:00:00 11.7 9 Este 17 Este 0 -- -- 86
2019-08-19 05:00:00 11.4 7 Este 14 Este 0 -- -- 88
2019-08-19 04:00:00 10.9 7 Sudeste 13 Este 0 -- -- 89
2019-08-19 03:00:00 11.4 9 Sudeste 14 Este 0 -- -- 88
2019-08-19 02:00:00 11.9 8 Este 17 Este 0 -- -- 86
2019-08-19 01:00:00 12.2 7 Este 14 Sudeste 0 -- -- 86
2019-08-19 00:00:00 12.9 11 Sudeste 19 Sudeste 0 -- -- 84
2019-08-18 23:00:00 14 13 Este 24 Este 0 -- -- 81
2019-08-18 22:00:00 16 13 Este 20 Sudeste 0 -- -- 77
2019-08-18 21:00:00 21.7 8 Norte 18 Noroeste 0 -- -- 56
2019-08-18 20:00:00 22.6 7 Noroeste 24 Noroeste 0 -- -- 54
2019-08-18 19:00:00 23 13 Noroeste 24 Noroeste 0 -- -- 50
2019-08-18 18:00:00 21.6 9 Norte 27 Noroeste 0 -- -- 60
2019-08-18 17:00:00 21.2 12 Norte 32 Norte 0 -- -- 64
2019-08-18 16:00:00 25.6 18 Noroeste 31 Noroeste 0 -- -- 40
2019-08-18 15:00:00 24.9 20 Oeste 36 Noroeste 0 -- -- 49
2019-08-18 14:00:00 24.6 18 Oeste 35 Oeste 0 -- -- 53
2019-08-18 13:00:00 23.3 21 Oeste 33 Oeste 0 -- -- 56
2019-08-18 12:00:00 20.8 18 Noroeste 32 Noroeste 0 -- -- 64
2019-08-18 11:00:00 19.7 16 Oeste 24 Oeste 0 -- -- 63
2019-08-18 10:00:00 19 14 Oeste 22 Noroeste 0 -- -- 58
2019-08-18 09:00:00 16 6 Oeste 13 Noroeste 0 -- -- 75
2019-08-18 08:00:00 13.6 8 Noroeste 13 Noroeste 0 -- -- 83
2019-08-18 07:00:00 11.5 7 Noroeste 10 Noroeste 0 -- -- 87
2019-08-18 06:00:00 12.6 8 Noroeste 11 Noroeste 0 -- -- 80
2019-08-18 05:00:00 12.6 6 Noroeste 9 Noroeste 0 -- -- 78
2019-08-18 04:00:00 14 5 Noroeste 10 Noroeste 0 -- -- 72
2019-08-18 03:00:00 15.7 6 Noroeste 10 Noroeste 0 -- -- 66
2019-08-18 02:00:00 18.3 6 Noroeste 13 Noroeste 0 -- -- 57
2019-08-18 01:00:00 19.4 5 Noroeste 15 Noroeste 0 -- -- 53
2019-08-18 00:00:00 21.2 10 Noroeste 17 Noroeste 0 -- -- 49
2019-08-17 23:00:00 21 8 Noroeste 15 Noroeste 0 -- -- 47
2019-08-17 22:00:00 24.6 10 Noroeste 32 Oeste 0 -- -- 37
2019-08-17 21:00:00 27.5 18 Oeste 31 Oeste 0 -- -- 30
2019-08-17 20:00:00 29.9 17 Oeste 28 Oeste 0 -- -- 27
2019-08-17 19:00:00 30.3 16 Oeste 34 Oeste 0 -- -- 28
2019-08-17 18:00:00 30.4 15 Noroeste 32 Oeste 0 -- -- 28
2019-08-17 17:00:00 29.9 19 Oeste 36 Oeste 0 -- -- 27
2019-08-17 16:00:00 29.5 14 Oeste 35 Oeste 0 -- -- 29
2019-08-17 15:00:00 28.4 14 Oeste 30 Oeste 0 -- -- 32
2019-08-17 14:00:00 27.6 17 Oeste 33 Oeste 0 -- -- 34
2019-08-17 13:00:00 26.1 14 Noroeste 27 Oeste 0 -- -- 40
2019-08-17 12:00:00 24.4 8 Noroeste 18 Oeste 0 -- -- 42
2019-08-17 11:00:00 22.8 6 Sudoeste 13 Sudoeste 0 -- -- 46
2019-08-17 10:00:00 20.2 5 Sur 11 Sur 0 -- -- 54
2019-08-17 09:00:00 17.3 3 Sudeste 8 Nordeste 0 -- -- 62
2019-08-17 08:00:00 12.6 6 Nordeste 9 Nordeste 0 -- -- 78
2019-08-17 07:00:00 11.7 6 Nordeste 9 Nordeste 0 -- -- 78
2019-08-17 06:00:00 14.9 7 Nordeste 11 Nordeste 0 -- -- 71
2019-08-17 05:00:00 15 7 Nordeste 12 Nordeste 0 -- -- 74
2019-08-17 04:00:00 15.3 9 Nordeste 11 Este 0 -- -- 75
2019-08-17 03:00:00 16.6 6 Nordeste 12 Nordeste 0 -- -- 69
2019-08-17 02:00:00 16.6 5 Este 12 Este 0 -- -- 66
2019-08-17 01:00:00 17.7 8 Este 9 Este 0 -- -- 64
2019-08-17 00:00:00 19.6 6 Nordeste 15 Nordeste 0 -- -- 51
2019-08-16 23:00:00 21.4 8 Noroeste 13 Noroeste 0 -- -- 42
2019-08-16 22:00:00 21.5 6 Oeste 8 Noroeste 0 -- -- 47
2019-08-16 21:00:00 26.6 5 Noroeste 25 Noroeste 0 -- -- 36
2019-08-16 20:00:00 29.6 13 Noroeste 27 Oeste 0 -- -- 28
2019-08-16 19:00:00 30 12 Noroeste 37 Oeste 0 -- -- 24
2019-08-16 18:00:00 29.9 18 Oeste 30 Oeste 0 -- -- 26
2019-08-16 17:00:00 29.8 15 Oeste 31 Oeste 0 -- -- 28
2019-08-16 16:00:00 29.4 14 Oeste 35 Oeste 0 -- -- 31
2019-08-16 15:00:00 28.4 16 Noroeste 31 Oeste 0 -- -- 33
2019-08-16 14:00:00 28.3 14 Oeste 30 Oeste 0 -- -- 33
2019-08-16 13:00:00 26.9 8 Sudoeste 21 Oeste 0 -- -- 38
2019-08-16 12:00:00 25.5 5 Sudoeste 13 Sudeste 0 -- -- 41
2019-08-16 11:00:00 23.6 4 Sur 12 Sur 0 -- -- 46
2019-08-16 10:00:00 21.1 4 Nordeste 9 Nordeste 0 -- -- 57
2019-08-16 09:00:00 17 5 Nordeste 13 Nordeste 0 -- -- 72
2019-08-16 08:00:00 14.1 9 Nordeste 13 Nordeste 0 -- -- 75
2019-08-16 07:00:00 13.3 8 Nordeste 13 Nordeste 0 -- -- 81
2019-08-16 06:00:00 13.1 8 Nordeste 13 Nordeste 0 -- -- 84
2019-08-16 05:00:00 12.4 9 Nordeste 12 Nordeste 0 -- -- 94
2019-08-16 04:00:00 12.2 7 Este 15 Este 0 -- -- 93
2019-08-16 03:00:00 13.2 10 Este 15 Este 0 -- -- 91
2019-08-16 02:00:00 13.9 9 Este 12 Este 0 -- -- 89
2019-08-16 01:00:00 14.7 9 Este 14 Este 0 -- -- 85
2019-08-16 00:00:00 15.9 10 Sudeste 17 Este 0 -- -- 80
2019-08-15 23:00:00 16.9 10 Este 16 Este 0 -- -- 75
2019-08-15 22:00:00 18.6 10 Este 24 Este 0 -- -- 67
2019-08-15 21:00:00 21 14 Este 27 Sudeste 0 -- -- 58
2019-08-15 20:00:00 22.9 18 Este 31 Este 0 -- -- 53
2019-08-15 19:00:00 24.9 18 Este 28 Este 0 -- -- 46
2019-08-15 18:00:00 28.6 12 Sur 26 Sur 0 -- -- 36
2019-08-15 17:00:00 27.5 14 Sur 33 Sur 0 -- -- 38
2019-08-15 16:00:00 27.3 9 Sur 33 Norte 0 -- -- 39
2019-08-15 15:00:00 26.4 10 Sur 18 Sudeste 0 -- -- 41
2019-08-15 14:00:00 24.6 7 Sudeste 19 Sudeste 0 -- -- 44
2019-08-15 13:00:00 23.1 8 Sudeste 16 Sudeste 0 -- -- 47
2019-08-15 12:00:00 21 8 Sur 15 Sudeste 0 -- -- 56
2019-08-15 11:00:00 18.5 6 Este 13 Este 0 -- -- 76
2019-08-15 10:00:00 14.8 6 Este 13 Este 0 -- -- 99
2019-08-15 09:00:00 13 9 Este 13 Este 0 -- -- 100
2019-08-15 08:00:00 11.9 7 Nordeste 12 Este 0 -- -- 99
2019-08-15 07:00:00 11.2 6 Este 12 Nordeste 0 -- -- 96
2019-08-15 06:00:00 12.7 6 Nordeste 10 Nordeste 0 -- -- 95
2019-08-15 05:00:00 13.1 8 Nordeste 11 Nordeste 0 -- -- 93
2019-08-15 04:00:00 13.6 6 Este 10 Este 0 -- -- 89
2019-08-15 03:00:00 14.1 9 Este 12 Este 0 -- -- 89
2019-08-15 02:00:00 15.4 4 Este 10 Nordeste 0 -- -- 80
2019-08-15 01:00:00 16.1 8 Este 11 Este 0 -- -- 79
2019-08-15 00:00:00 17.6 9 Este 13 Nordeste 0 -- -- 72
2019-08-14 23:00:00 19.5 11 Este 16 Nordeste 0 -- -- 65
2019-08-14 22:00:00 22 13 Este 19 Este 0 -- -- 57
2019-08-14 21:00:00 25.8 7 Oeste 15 Noroeste 0 -- -- 44
2019-08-14 20:00:00 26.4 5 Noroeste 27 Oeste 0 -- -- 44
2019-08-14 19:00:00 28 12 Noroeste 27 Noroeste 0 -- -- 39
2019-08-14 18:00:00 28.6 12 Oeste 29 Noroeste 0 -- -- 37
2019-08-14 17:00:00 28.3 17 Oeste 28 Oeste 0 -- -- 37
2019-08-14 16:00:00 27 12 Oeste 23 Oeste 0 -- -- 39
2019-08-14 15:00:00 25.8 11 Noroeste 24 Noroeste 0 -- -- 39
2019-08-14 14:00:00 24.7 12 Oeste 24 Oeste 0 -- -- 38
2019-08-14 13:00:00 23.3 12 Noroeste 22 Oeste 0 -- -- 40
2019-08-14 12:00:00 22.1 10 Noroeste 24 Oeste 0 -- -- 39
2019-08-14 11:00:00 20.2 6 Oeste 13 Noroeste 0 -- -- 47
2019-08-14 10:00:00 17.9 6 Noroeste 12 Noroeste 0 -- -- 55
2019-08-14 09:00:00 14.9 4 Este 9 Nordeste 0 -- -- 71
2019-08-14 08:00:00 9.9 3 Nordeste 10 Nordeste 0 -- -- 85
2019-08-14 07:00:00 11.5 9 Nordeste 13 Nordeste 0 -- -- 79
2019-08-14 06:00:00 11.3 7 Nordeste 13 Nordeste 0 -- -- 81
2019-08-14 05:00:00 11.4 12 Nordeste 13 Nordeste 0 -- -- 82
2019-08-14 04:00:00 11.5 9 Nordeste 12 Nordeste 0 -- -- 82
2019-08-14 03:00:00 11.8 8 Este 9 Este 0 -- -- 81
2019-08-14 02:00:00 12.2 6 Este 12 Este 0 -- -- 80
2019-08-14 01:00:00 13 8 Este 14 Este 0 -- -- 78
2019-08-14 00:00:00 13.7 9 Este 13 Este 0 -- -- 76
2019-08-13 23:00:00 15.6 8 Este 14 Este 0 -- -- 66
2019-08-13 22:00:00 16.1 3 Oeste -- -- 0 -- -- 47
2019-08-13 21:00:00 21.7 4 Oeste 15 Noroeste 0 -- -- 32
2019-08-13 20:00:00 23 9 Oeste 18 Oeste 0 -- -- 29
2019-08-13 19:00:00 23.5 8 Oeste 17 Oeste 0 -- -- 29
2019-08-13 18:00:00 23.2 9 Norte 26 Oeste 0 -- -- 30
2019-08-13 17:00:00 23 10 Noroeste 21 Oeste 0 -- -- 33
2019-08-13 16:00:00 21.9 10 Noroeste 22 Noroeste 0 -- -- 36
2019-08-13 15:00:00 21 3 Sur 17 Sudeste 0 -- -- 40
2019-08-13 14:00:00 19.6 8 Sur 20 Este 0 -- -- 44
2019-08-13 13:00:00 17.9 7 Este 20 Este 0 -- -- 49
2019-08-13 12:00:00 16.3 6 Sudeste 22 Este 0 -- -- 54
2019-08-13 11:00:00 14.5 9 Este 17 Este 0 -- -- 61
2019-08-13 10:00:00 12.2 12 Este 18 Este 0 -- -- 75
2019-08-13 09:00:00 9.9 7 Este 12 Este 0 -- -- 87
2019-08-13 08:00:00 7.5 8 Este 9 Este 0 -- -- 96
2019-08-13 07:00:00 6.9 4 Este 8 Este 0 -- -- 93
2019-08-13 06:00:00 7.5 6 Este 13 Este 0 -- -- 93
2019-08-13 05:00:00 8.2 7 Este 12 Este 0 -- -- 90
2019-08-13 04:00:00 9.4 9 Este 18 Este 0 -- -- 86
2019-08-13 03:00:00 9.8 13 Este 21 Este 0 -- -- 85
2019-08-13 02:00:00 9.9 14 Sudeste 23 Sudeste 0 -- -- 85
2019-08-13 01:00:00 10.4 12 Sudeste 19 Este 0 -- -- 83
2019-08-13 00:00:00 11 13 Este 21 Sudeste 0 -- -- 81
2019-08-12 23:00:00 11.5 12 Este 20 Sudeste 0 -- -- 77
2019-08-12 22:00:00 12.4 13 Sudeste 26 Sudeste 0 -- -- 72
2019-08-12 21:00:00 14.1 19 Sudeste 30 Sudeste 0 -- -- 64
2019-08-12 20:00:00 16 16 Sudeste 31 Sudeste 0 -- -- 58
2019-08-12 19:00:00 18.7 14 Sudeste 22 Sur 0 -- -- 45
2019-08-12 18:00:00 19.6 8 Sudeste 19 Sudeste 0 -- -- 38
2019-08-12 17:00:00 19.6 6 Sudeste 23 Este 0 -- -- 37
2019-08-12 16:00:00 19.8 8 Sudeste 23 Sudeste 0 -- -- 36
2019-08-12 15:00:00 19.2 9 Sudeste 26 Sudeste 0 -- -- 39
2019-08-12 14:00:00 18.6 13 Sudeste 35 Este 0 -- -- 42
2019-08-12 13:00:00 16.8 8 Sur 22 Sur 0 -- -- 48
2019-08-12 12:00:00 16 9 Este 18 Este 0 -- -- 48
2019-08-12 11:00:00 14.3 10 Este 27 Nordeste 0 -- -- 59
2019-08-12 10:00:00 13 10 Nordeste 23 Norte 0 -- -- 62
2019-08-12 09:00:00 10.2 5 Nordeste 12 Nordeste 0 -- -- 76
2019-08-12 08:00:00 7.9 4 Norte 17 Norte 0 -- -- 85
2019-08-12 07:00:00 7.1 7 Norte 15 Norte 0 -- -- 87
2019-08-12 06:00:00 6.6 4 Norte 8 Norte 0 -- -- 91
2019-08-12 05:00:00 5.8 0 Calma 6 Este 0 -- -- 92
2019-08-12 04:00:00 6.9 6 Nordeste 10 Nordeste 0 -- -- 90
2019-08-12 03:00:00 6.5 0 Calma -- -- 0 -- -- 86
2019-08-12 02:00:00 7.5 0 Calma -- -- 0 -- -- 83
2019-08-12 01:00:00 9.1 0 Calma 8 Nordeste 0 -- -- 79
2019-08-12 00:00:00 10.6 0 Calma 8 Norte 0 -- -- 74
2019-08-11 23:00:00 12.1 2 Noroeste 12 Nordeste 0 -- -- 73
2019-08-11 22:00:00 14 3 Nordeste 27 Nordeste 0 -- -- 68
2019-08-11 21:00:00 14.9 22 Este 35 Este 0 -- -- 71
2019-08-11 20:00:00 19.3 12 Noroeste 22 Oeste 0 -- -- 36
2019-08-11 19:00:00 21.4 16 Oeste 31 Noroeste 0 -- -- 32
2019-08-11 18:00:00 21.5 15 Oeste 27 Noroeste 0 -- -- 37
2019-08-11 17:00:00 19.5 7 Noroeste 29 Noroeste 0 -- -- 42
2019-08-11 16:00:00 20.6 17 Oeste 30 Oeste 0 -- -- 40
2019-08-11 15:00:00 18.4 15 Oeste 29 Oeste 0 -- -- 54
2019-08-11 14:00:00 18.8 13 Oeste 23 Oeste 0 -- -- 57
2019-08-11 13:00:00 18.1 10 Oeste 22 Oeste 0 -- -- 62
2019-08-11 12:00:00 16 11 Oeste 16 Oeste 0 -- -- 75
2019-08-11 11:00:00 14.9 7 Sudoeste 13 Sudoeste 0 -- -- 84
2019-08-11 10:00:00 15 3 Este 13 Este 0 -- -- 83
2019-08-11 09:00:00 13.1 11 Este 15 Este 0 -- -- 89
2019-08-11 08:00:00 11.1 9 Este 12 Este 0 -- -- 96
2019-08-11 07:00:00 11.3 8 Este 15 Este 0 -- -- 94
2019-08-11 06:00:00 11.3 8 Este 17 Sudeste 0.8 -- -- 93
2019-08-11 05:00:00 11.8 6 Sudeste 12 Sudeste 4.8 -- -- 92
2019-08-11 04:00:00 13.3 5 Sur 12 Nordeste 0.2 -- -- 83
2019-08-11 03:00:00 13.6 8 Este 24 Este 0 -- -- 72
2019-08-11 02:00:00 13.4 16 Nordeste 26 Este 0 -- -- 74
2019-08-11 01:00:00 13.1 14 Este 34 Este 0 -- -- 77
2019-08-11 00:00:00 13.2 14 Este 27 Este 0 -- -- 78
2019-08-10 23:00:00 13.9 15 Este 29 Este 0 -- -- 77
2019-08-10 22:00:00 15.8 15 Este 26 Este 0 -- -- 71
2019-08-10 21:00:00 20.9 4 Oeste 12 Oeste 0 -- -- 31
2019-08-10 20:00:00 22.4 7 Noroeste 17 Oeste 0 -- -- 29
2019-08-10 19:00:00 24.1 10 Sudoeste 24 Noroeste 0 -- -- 27
2019-08-10 18:00:00 24.3 12 Sudoeste 25 Oeste 0 -- -- 25
2019-08-10 17:00:00 24.4 13 Oeste 28 Oeste 0 -- -- 26
2019-08-10 16:00:00 23.2 14 Oeste 28 Oeste 0 -- -- 30
2019-08-10 15:00:00 22.4 12 Sudoeste 26 Noroeste 0 -- -- 33
2019-08-10 14:00:00 21.2 11 Oeste 26 Sudoeste 0 -- -- 37
2019-08-10 13:00:00 20.2 9 Oeste 24 Oeste 0 -- -- 41
2019-08-10 12:00:00 18.8 10 Sudoeste 20 Oeste 0 -- -- 41
2019-08-10 11:00:00 17.5 5 Noroeste 17 Oeste 0 -- -- 52
2019-08-10 10:00:00 15.7 7 Oeste 13 Oeste 0 -- -- 58
2019-08-10 09:00:00 13.7 6 Oeste 10 Oeste 0 -- -- 76
2019-08-10 08:00:00 12.4 0 Calma 8 Oeste 0 -- -- 80
2019-08-10 07:00:00 12.8 5 Oeste 8 Oeste 0 -- -- 78
2019-08-10 06:00:00 12.9 2 Oeste 10 Oeste 0 -- -- 77
2019-08-10 05:00:00 13.7 4 Oeste 13 Noroeste 0 -- -- 72
2019-08-10 04:00:00 14 6 Noroeste 10 Noroeste 0 -- -- 70
2019-08-10 03:00:00 14.5 6 Noroeste 13 Noroeste 0 -- -- 66
2019-08-10 02:00:00 14.9 6 Noroeste 12 Noroeste 0 -- -- 63
2019-08-10 01:00:00 15.4 7 Noroeste 14 Noroeste 0 -- -- 61
2019-08-10 00:00:00 16.1 5 Noroeste 19 Noroeste 0 -- -- 62
2019-08-09 23:00:00 16.9 11 Noroeste 19 Oeste 0 -- -- 61
2019-08-09 22:00:00 17.9 14 Oeste 29 Noroeste 0 -- -- 55
2019-08-09 21:00:00 19.6 19 Oeste 34 Oeste 0 -- -- 48
2019-08-09 20:00:00 20.5 20 Oeste 39 Noroeste 0 -- -- 45
2019-08-09 19:00:00 21.2 24 Noroeste 48 Oeste 0 -- -- 44
2019-08-09 18:00:00 22.5 31 Oeste 51 Oeste 0 -- -- 41
2019-08-09 17:00:00 22.5 30 Oeste 59 Oeste 0 -- -- 41
2019-08-09 16:00:00 23.8 35 Oeste 58 Oeste 0 -- -- 35
2019-08-09 15:00:00 21.5 30 Oeste 54 Oeste 0 -- -- 47
2019-08-09 14:00:00 21.4 31 Oeste 50 Oeste 0 -- -- 46
2019-08-09 13:00:00 20.7 31 Oeste 46 Oeste 0 -- -- 48
2019-08-09 12:00:00 17.2 24 Oeste 46 Oeste 0 -- -- 76
2019-08-09 11:00:00 16 30 Oeste 42 Oeste 0.4 -- -- 88
2019-08-09 10:00:00 16.2 27 Oeste 50 Noroeste 0.4 -- -- 91
2019-08-09 09:00:00 17.5 24 Oeste 44 Oeste 0 -- -- 95
2019-08-09 08:00:00 18.3 24 Oeste 39 Oeste 0 -- -- 86
2019-08-09 07:00:00 18.1 20 Oeste 31 Oeste 0 -- -- 84
2019-08-09 06:00:00 18.3 19 Oeste 31 Oeste 0 -- -- 82
2019-08-09 05:00:00 18.5 13 Oeste 27 Oeste 0 -- -- 79
2019-08-09 04:00:00 18.6 13 Oeste 21 Oeste 0 -- -- 79
2019-08-09 03:00:00 18.9 10 Oeste 18 Oeste 0 -- -- 76
2019-08-09 02:00:00 19.5 13 Oeste 29 Oeste 0 -- -- 73
2019-08-09 01:00:00 20.3 19 Oeste 30 Oeste 0 -- -- 70
2019-08-09 00:00:00 20.4 13 Noroeste 23 Noroeste 0 -- -- 72
2019-08-08 23:00:00 20.8 9 Noroeste 24 Noroeste 0 -- -- 75
2019-08-08 22:00:00 22.4 13 Noroeste 31 Oeste 0 -- -- 67
2019-08-08 21:00:00 24.1 19 Oeste 36 Oeste 0 -- -- 59
2019-08-08 20:00:00 25.2 27 Oeste 44 Oeste 0 -- -- 55
2019-08-08 19:00:00 25.4 25 Oeste 41 Noroeste 0 -- -- 56
2019-08-08 18:00:00 25.4 19 Oeste 35 Oeste 0 -- -- 58
2019-08-08 17:00:00 24.5 24 Oeste 39 Oeste 0 -- -- 63
2019-08-08 16:00:00 24.9 22 Oeste 36 Oeste 0 -- -- 64
2019-08-08 15:00:00 23.2 22 Oeste 35 Oeste 0 -- -- 71
2019-08-08 14:00:00 20.5 16 Oeste 27 Oeste 0 -- -- 82
2019-08-08 13:00:00 19.3 13 Oeste 26 Oeste 0 -- -- 86
2019-08-08 12:00:00 19.2 17 Oeste 31 Oeste 0 -- -- 88
2019-08-08 11:00:00 18.5 21 Oeste 31 Oeste 0 -- -- 88
2019-08-08 10:00:00 17.9 15 Oeste 27 Oeste 0 -- -- 85
2019-08-08 09:00:00 17 8 Oeste 19 Oeste 0 -- -- 93
2019-08-08 08:00:00 16.1 6 Oeste 20 Oeste 0 -- -- 96
2019-08-08 07:00:00 16.1 12 Oeste 22 Oeste 0 -- -- 95
2019-08-08 06:00:00 16.1 14 Oeste 22 Oeste 0 -- -- 96
2019-08-08 05:00:00 15.9 9 Oeste 25 Oeste 0.2 -- -- 96
2019-08-08 04:00:00 16.1 14 Oeste 25 Oeste 0 -- -- 94
2019-08-08 03:00:00 16.1 10 Oeste 15 Oeste 0 -- -- 95
2019-08-08 02:00:00 14.4 4 Oeste 6 Oeste 0 -- -- 97
2019-08-08 01:00:00 13.7 0 Calma -- -- 0 -- -- 96
2019-08-08 00:00:00 14.4 0 Calma -- -- 0 -- -- 95
2019-08-07 23:00:00 15.5 0 Calma 15 Oeste 0 -- -- 94
2019-08-07 22:00:00 16.2 11 Noroeste 26 Oeste 0.2 -- -- 95
2019-08-07 21:00:00 16.7 15 Oeste 32 Noroeste 0.6 -- -- 91
2019-08-07 20:00:00 20 15 Oeste 28 Oeste 0 -- -- 61
2019-08-07 19:00:00 19.4 19 Oeste 40 Oeste 0 -- -- 65
2019-08-07 18:00:00 19.9 27 Oeste 43 Oeste 0 -- -- 64
2019-08-07 17:00:00 22.3 25 Oeste 38 Oeste 0 -- -- 50
2019-08-07 16:00:00 22.6 26 Oeste 45 Oeste 0 -- -- 47
2019-08-07 15:00:00 23.8 17 Noroeste 31 Sudoeste 0 -- -- 45
2019-08-07 14:00:00 23.7 13 Oeste 28 Oeste 0 -- -- 49
2019-08-07 13:00:00 23.2 9 Sudoeste 24 Sudoeste 0 -- -- 50
2019-08-07 12:00:00 21.6 5 Sudoeste 16 Sudeste 0 -- -- 60
2019-08-07 11:00:00 21.4 6 Sur 15 Sudeste 0 -- -- 63
2019-08-07 10:00:00 19.9 4 Este 9 Este 0 -- -- 72
2019-08-07 09:00:00 17.2 5 Este 7 Este 0 -- -- 82
2019-08-07 08:00:00 15.7 5 Nordeste 9 Nordeste 0 -- -- 89
2019-08-07 07:00:00 15.4 5 Nordeste 6 Nordeste 0 -- -- 89
2019-08-07 06:00:00 15.2 0 Calma -- -- 0 -- -- 88
2019-08-07 05:00:00 15.2 0 Calma 5 Nordeste 0 -- -- 87
2019-08-07 04:00:00 15.5 0 Calma 8 Este 0 -- -- 87
2019-08-07 03:00:00 16.3 6 Este 10 Nordeste 0 -- -- 86
2019-08-07 02:00:00 16.5 8 Este 18 Este 0 -- -- 86
2019-08-07 01:00:00 16.7 10 Este 15 Nordeste 0 -- -- 87
2019-08-07 00:00:00 17.4 8 Este 23 Sudeste 0 -- -- 83
2019-08-06 23:00:00 19.7 12 Este 23 Este 0 -- -- 71
2019-08-06 22:00:00 22.4 10 Noroeste 26 Noroeste 0 -- -- 46
2019-08-06 21:00:00 24.2 3 Nordeste 11 Norte 0 -- -- 43
2019-08-06 20:00:00 25.3 4 Norte 15 Noroeste 0 -- -- 40
2019-08-06 19:00:00 25.9 9 Noroeste 23 Noroeste 0 -- -- 38
2019-08-06 18:00:00 26.6 16 Noroeste 27 Oeste 0 -- -- 35
2019-08-06 17:00:00 27.6 13 Oeste 27 Oeste 0 -- -- 35
2019-08-06 16:00:00 26.7 12 Noroeste 24 Oeste 0 -- -- 39
2019-08-06 15:00:00 25.9 14 Oeste 24 Oeste 0 -- -- 39
2019-08-06 14:00:00 25.6 13 Oeste 25 Oeste 0 -- -- 42
2019-08-06 13:00:00 25.1 10 Oeste 23 Oeste 0 -- -- 44
2019-08-06 12:00:00 23.3 8 Noroeste 19 Oeste 0 -- -- 49
2019-08-06 11:00:00 22.1 3 Oeste 11 Oeste 0 -- -- 51
2019-08-06 10:00:00 19.2 3 Nordeste 10 Sudeste 0 -- -- 59
2019-08-06 09:00:00 16.3 4 Nordeste 5 Nordeste 0 -- -- 76
2019-08-06 08:00:00 11.9 0 Calma -- -- 0 -- -- 89
2019-08-06 07:00:00 12 0 Calma 5 Nordeste 0 -- -- 90
2019-08-06 06:00:00 14.1 3 Nordeste 12 Este 0 -- -- 85
2019-08-06 05:00:00 14.2 8 Este 9 Nordeste 0 -- -- 84
2019-08-06 04:00:00 14.5 4 Este 8 Este 0 -- -- 82
2019-08-06 03:00:00 15.6 0 Calma 12 Sudeste 0 -- -- 79
2019-08-06 02:00:00 17 10 Sudeste 15 Este 0 -- -- 77
2019-08-06 01:00:00 17.3 9 Este 17 Este 0 -- -- 76
2019-08-06 00:00:00 18.5 10 Este 16 Este 0 -- -- 65
2019-08-05 23:00:00 19.6 10 Este 23 Este 0 -- -- 68
2019-08-05 22:00:00 22.9 4 Este 19 Este 0 -- -- 45
2019-08-05 21:00:00 28 5 Oeste 13 Noroeste 0 -- -- 30
2019-08-05 20:00:00 29 9 Oeste 29 Oeste 0 -- -- 23
2019-08-05 19:00:00 29.3 13 Oeste 26 Noroeste 0 -- -- 26
2019-08-05 18:00:00 29.6 13 Noroeste 29 Oeste 0 -- -- 29
2019-08-05 17:00:00 29.3 13 Oeste 24 Oeste 0 -- -- 33
2019-08-05 16:00:00 28.8 13 Oeste 31 Oeste 0 -- -- 32
2019-08-05 15:00:00 27.8 12 Oeste 28 Noroeste 0 -- -- 36
2019-08-05 14:00:00 26.6 12 Noroeste 25 Noroeste 0 -- -- 43
2019-08-05 13:00:00 25.9 9 Oeste 20 Noroeste 0 -- -- 46
2019-08-05 12:00:00 24 6 Sudoeste 13 Sur 0 -- -- 50
2019-08-05 11:00:00 22.1 5 Sur 12 Sudeste 0 -- -- 55
2019-08-05 10:00:00 19.4 6 Este 14 Sudeste 0 -- -- 66
2019-08-05 09:00:00 16.8 8 Este 10 Este 0 -- -- 80
2019-08-05 08:00:00 14 6 Este 9 Este 0 -- -- 90
2019-08-05 07:00:00 12.8 7 Este 9 Este 0 -- -- 93
2019-08-05 06:00:00 12.8 9 Nordeste 13 Nordeste 0 -- -- 92
2019-08-05 05:00:00 13.3 10 Nordeste 13 Nordeste 0 -- -- 92
2019-08-05 04:00:00 13.6 9 Este 12 Este 0 -- -- 92
2019-08-05 03:00:00 14.4 8 Este 15 Sudeste 0 -- -- 90
2019-08-05 02:00:00 15.1 9 Este 15 Este 0 -- -- 88
2019-08-05 01:00:00 15.9 7 Este 12 Este 0 -- -- 84
2019-08-05 00:00:00 16.8 8 Este 22 Este 0 -- -- 80
2019-08-04 23:00:00 18.1 11 Este 30 Este 0 -- -- 75
2019-08-04 22:00:00 23.8 6 Oeste 18 Oeste 0 -- -- 35
2019-08-04 21:00:00 28 12 Oeste 27 Oeste 0 -- -- 27
2019-08-04 20:00:00 29.5 16 Oeste 32 Oeste 0 -- -- 28
2019-08-04 19:00:00 29.2 12 Oeste 32 Oeste 0 -- -- 31
2019-08-04 18:00:00 29.8 15 Noroeste 32 Oeste 0 -- -- 31
2019-08-04 17:00:00 29.5 13 Oeste 32 Oeste 0 -- -- 32
2019-08-04 16:00:00 29.2 21 Oeste 35 Oeste 0 -- -- 31
2019-08-04 15:00:00 28.2 19 Oeste 30 Oeste 0 -- -- 36
2019-08-04 14:00:00 27.5 12 Oeste 23 Sudoeste 0 -- -- 39
2019-08-04 13:00:00 25.6 11 Sur 18 Sudeste 0 -- -- 45
2019-08-04 12:00:00 23.6 6 Sudeste 17 Sudeste 0 -- -- 50
2019-08-04 11:00:00 22.2 7 Sudeste 14 Sur 0 -- -- 52
2019-08-04 10:00:00 19.8 8 Sudeste 13 Sudeste 0 -- -- 57
2019-08-04 09:00:00 18 4 Este 7 Este 0 -- -- 64
2019-08-04 08:00:00 15 0 Calma 10 Nordeste 0 -- -- 78
2019-08-04 07:00:00 14.3 10 Nordeste 14 Nordeste 0 -- -- 79
2019-08-04 06:00:00 15.4 9 Nordeste 12 Nordeste 0 -- -- 76
2019-08-04 05:00:00 15.3 9 Nordeste 13 Nordeste 0 -- -- 77
2019-08-04 04:00:00 16.7 9 Nordeste 13 Nordeste 0 -- -- 73
2019-08-04 03:00:00 16 5 Nordeste 10 Nordeste 0 -- -- 74
2019-08-04 02:00:00 17.8 8 Norte 13 Noroeste 0 -- -- 70
2019-08-04 01:00:00 19.2 5 Noroeste 14 Nordeste 0 -- -- 63
2019-08-04 00:00:00 20.5 11 Nordeste 24 Este 0 -- -- 59
2019-08-03 23:00:00 21.9 13 Este 23 Este 0 -- -- 59
2019-08-03 22:00:00 23.9 12 Este 25 Este 0 -- -- 53
2019-08-03 21:00:00 28.5 5 Oeste 21 Noroeste 0 -- -- 25
2019-08-03 20:00:00 30.6 10 Noroeste 24 Oeste 0 -- -- 25
2019-08-03 19:00:00 31.2 16 Oeste 26 Noroeste 0 -- -- 25
2019-08-03 18:00:00 31.6 12 Noroeste 28 Noroeste 0 -- -- 26
2019-08-03 17:00:00 31.5 8 Oeste 32 Oeste 0 -- -- 22
2019-08-03 16:00:00 31.2 12 Noroeste 28 Oeste 0 -- -- 23
2019-08-03 15:00:00 30.8 18 Oeste 29 Oeste 0 -- -- 24
2019-08-03 14:00:00 30 6 Sur 23 Sur 0 -- -- 29
2019-08-03 13:00:00 28.8 7 Sudoeste 19 Sur 0 -- -- 32
2019-08-03 12:00:00 27.3 9 Sur 20 Sudeste 0 -- -- 35
2019-08-03 11:00:00 26.1 13 Sudeste 19 Sudeste 0 -- -- 36
2019-08-03 10:00:00 23.8 9 Este 14 Este 0 -- -- 37
2019-08-03 09:00:00 20.7 9 Este 12 Nordeste 0 -- -- 44
2019-08-03 08:00:00 16.7 10 Nordeste 14 Nordeste 0 -- -- 53
2019-08-03 07:00:00 15.2 11 Nordeste 16 Nordeste 0 -- -- 55
2019-08-03 06:00:00 14.9 14 Nordeste 17 Nordeste 0 -- -- 61
2019-08-03 05:00:00 15 13 Nordeste 20 Nordeste 0 -- -- 65
2019-08-03 04:00:00 15.6 14 Nordeste 17 Nordeste 0 -- -- 67
2019-08-03 03:00:00 15.8 9 Este 15 Sudeste 0 -- -- 67
2019-08-03 02:00:00 16.4 10 Sur 13 Sudeste 0 -- -- 60
2019-08-03 01:00:00 17.3 7 Este 13 Este 0 -- -- 61
2019-08-03 00:00:00 19.1 9 Este 24 Este 0 -- -- 57
2019-08-02 23:00:00 20.6 11 Este 21 Este 0 -- -- 55
2019-08-02 22:00:00 22.2 10 Este 21 Este 0 -- -- 50
2019-08-02 21:00:00 25.3 16 Este 26 Este 0 -- -- 46
2019-08-02 20:00:00 29.2 6 Sudoeste 16 Sudoeste 0 -- -- 25
2019-08-02 19:00:00 29.3 8 Sur 23 Sudeste 0 -- -- 26
2019-08-02 18:00:00 29.1 9 Sudeste 22 Sudeste 0 -- -- 28
2019-08-02 17:00:00 28.9 8 Sudeste 23 Noroeste 0 -- -- 30
2019-08-02 16:00:00 28.8 13 Norte 25 Oeste 0 -- -- 26
2019-08-02 15:00:00 28 8 Oeste 25 Sudoeste 0 -- -- 32
2019-08-02 14:00:00 26.9 11 Sudeste 22 Sur 0 -- -- 32
2019-08-02 13:00:00 26 8 Sur 16 Sur 0 -- -- 32
2019-08-02 12:00:00 24.4 7 Sudeste 17 Sudeste 0 -- -- 30
2019-08-02 11:00:00 21.6 9 Este 14 Este 0 -- -- 40
2019-08-02 10:00:00 18.9 6 Este 13 Nordeste 0 -- -- 60
2019-08-02 09:00:00 13.9 9 Nordeste 17 Nordeste 0 -- -- 87
2019-08-02 08:00:00 10.7 14 Nordeste 21 Nordeste 0 -- -- 98
2019-08-02 07:00:00 10.6 13 Nordeste 18 Este 0 -- -- 96
2019-08-02 06:00:00 10.8 9 Este 12 Este 0 -- -- 95
2019-08-02 05:00:00 11.5 9 Este 14 Sudeste 0 -- -- 94
2019-08-02 04:00:00 12 9 Este 15 Sudeste 0 -- -- 94
2019-08-02 03:00:00 12.1 7 Este 15 Este 0 -- -- 93
2019-08-02 02:00:00 13.1 9 Este 18 Este 0 -- -- 91
2019-08-02 01:00:00 13.8 10 Este 22 Sudeste 0 -- -- 88
2019-08-02 00:00:00 14.5 15 Sudeste 24 Sudeste 0 -- -- 85
2019-08-01 23:00:00 15.6 12 Este 24 Sudeste 0 -- -- 81
2019-08-01 22:00:00 17 18 Sudeste 29 Este 0 -- -- 76
2019-08-01 21:00:00 19.8 16 Sudeste 30 Este 0 -- -- 68
2019-08-01 20:00:00 23.2 20 Este 32 Este 0 -- -- 58
2019-08-01 19:00:00 25.2 19 Sudeste 29 Este 0 -- -- 51
2019-08-01 18:00:00 27 8 Oeste 28 Oeste 0 -- -- 33
2019-08-01 17:00:00 27.5 13 Sudoeste 26 Sudoeste 0 -- -- 33
2019-08-01 16:00:00 26.2 12 Sur 26 Sudoeste 0 -- -- 44
2019-08-01 15:00:00 24.1 5 Este 21 Sudeste 0 -- -- 51
2019-08-01 14:00:00 24.5 7 Este 19 Sudeste 0 -- -- 52
2019-08-01 13:00:00 22.7 6 Este 20 Sudeste 0 -- -- 59
2019-08-01 12:00:00 21.5 12 Sudeste 22 Sudeste 0 -- -- 61
2019-08-01 11:00:00 19.9 13 Este 24 Este 0 -- -- 66
2019-08-01 10:00:00 17.8 14 Este 24 Este 0 -- -- 70
2019-08-01 09:00:00 15.5 17 Este 25 Este 0 -- -- 75
2019-08-01 08:00:00 13.2 13 Este 18 Este 0 -- -- 82
2019-08-01 07:00:00 12.5 13 Este 24 Este 0 -- -- 85
2019-08-01 06:00:00 12.9 15 Este 21 Este 0 -- -- 82
2019-08-01 05:00:00 13.2 12 Este 17 Este 0 -- -- 80
2019-08-01 04:00:00 14.2 13 Este 24 Este 0 -- -- 77
2019-08-01 03:00:00 14.8 17 Este 23 Este 0 -- -- 74
2019-08-01 02:00:00 15.1 14 Este 27 Este 0 -- -- 74
2019-08-01 01:00:00 15.6 14 Este 26 Este 0 -- -- 74
2019-08-01 00:00:00 15.9 14 Este 25 Este 0 -- -- 72
2019-07-31 23:00:00 16.7 16 Este 29 Este 0 -- -- 69
2019-07-31 22:00:00 17.8 13 Este 24 Este 0 -- -- 64
2019-07-31 21:00:00 19.7 17 Este 29 Este 0 -- -- 57
2019-07-31 20:00:00 22 19 Este 27 Este 0 -- -- 47
2019-07-31 19:00:00 23 18 Este 26 Este 0 -- -- 41
2019-07-31 18:00:00 24.1 15 Sudeste 24 Sudeste 0 -- -- 37
2019-07-31 17:00:00 24.4 12 Este 28 Este 0 -- -- 36
2019-07-31 16:00:00 23.8 14 Este 25 Este 0 -- -- 38
2019-07-31 15:00:00 22.5 14 Este 28 Sudeste 0 -- -- 37
2019-07-31 14:00:00 21.5 14 Sudeste 23 Sudeste 0 -- -- 40
2019-07-31 13:00:00 20.7 14 Sudeste 22 Sudeste 0 -- -- 44
2019-07-31 12:00:00 19 14 Sudeste 24 Este 0 -- -- 51
2019-07-31 11:00:00 17.2 14 Este 22 Sudeste 0 -- -- 57
2019-07-31 10:00:00 14.6 15 Este 23 Este 0 -- -- 66
2019-07-31 09:00:00 12 17 Este 24 Este 0 -- -- 79
2019-07-31 08:00:00 9.8 13 Este 19 Este 0 -- -- 90
2019-07-31 07:00:00 9.1 13 Este 19 Este 0 -- -- 93
2019-07-31 06:00:00 9.3 10 Este 21 Este 0 -- -- 92
2019-07-31 05:00:00 9.5 11 Este 19 Este 0 -- -- 91
2019-07-31 04:00:00 9.7 10 Este 21 Sudeste 0 -- -- 90
2019-07-31 03:00:00 10 12 Sudeste 21 Sudeste 0 -- -- 88
2019-07-31 02:00:00 10.5 10 Este 23 Este 0 -- -- 88
2019-07-31 01:00:00 10.8 14 Sudeste 28 Sudeste 0 -- -- 88
2019-07-31 00:00:00 11.5 13 Este 22 Este 0 -- -- 83
2019-07-30 23:00:00 12.6 16 Este 27 Este 0 -- -- 77
2019-07-30 22:00:00 14 17 Este 28 Este 0 -- -- 68
2019-07-30 21:00:00 16.8 16 Este 33 Este 0 -- -- 59
2019-07-30 20:00:00 19 18 Este 33 Este 0 -- -- 52
2019-07-30 19:00:00 21.2 23 Sudeste 37 Este 0 -- -- 45
2019-07-30 18:00:00 22.9 6 Sudoeste 19 Sudoeste 0 -- -- 31
2019-07-30 17:00:00 22.1 9 Sudeste 20 Sudeste 0 -- -- 37
2019-07-30 16:00:00 20.7 6 Sur 21 Sudoeste 0 -- -- 39
2019-07-30 15:00:00 20 10 Sur 20 Sur 0 -- -- 42
2019-07-30 14:00:00 20 8 Sudoeste 14 Este 0 -- -- 43
2019-07-30 13:00:00 18.5 4 Sudeste 19 Sudeste 0 -- -- 47
2019-07-30 12:00:00 17.7 7 Este 13 Sudeste 0 -- -- 56
2019-07-30 11:00:00 14.2 3 Sudeste 12 Este 0 -- -- 73
2019-07-30 10:00:00 12.8 8 Este 15 Este 0 -- -- 82
2019-07-30 09:00:00 11.8 8 Este 12 Nordeste 0 -- -- 89
2019-07-30 08:00:00 10.2 6 Norte 10 Norte 0 -- -- 96
2019-07-30 07:00:00 9.9 0 Calma 5 Norte 0 -- -- 94
2019-07-30 06:00:00 10.7 3 Norte 8 Nordeste 0 -- -- 94
2019-07-30 05:00:00 11.7 0 Calma 8 Sur 0 -- -- 92
2019-07-30 04:00:00 11.8 5 Sur 10 Sudeste 0 -- -- 90
2019-07-30 03:00:00 11.8 6 Sudeste 10 Este 0 -- -- 91
2019-07-30 02:00:00 10.5 8 Este 11 Nordeste 0 -- -- 85
2019-07-30 01:00:00 11.6 7 Noroeste 18 Noroeste 0 -- -- 69
2019-07-30 00:00:00 13.7 10 Noroeste 24 Noroeste 0 -- -- 62
2019-07-29 23:00:00 14.2 10 Noroeste 17 Noroeste 0 -- -- 55
2019-07-29 22:00:00 16.4 7 Noroeste 29 Noroeste 0 -- -- 46
2019-07-29 21:00:00 19.4 18 Noroeste 30 Noroeste 0 -- -- 42
2019-07-29 20:00:00 21.3 18 Noroeste 36 Noroeste 0 -- -- 37
2019-07-29 19:00:00 22.4 23 Noroeste 39 Oeste 0 -- -- 36
2019-07-29 18:00:00 23 17 Noroeste 33 Noroeste 0 -- -- 38
2019-07-29 17:00:00 23.2 18 Noroeste 31 Oeste 0 -- -- 39
2019-07-29 16:00:00 23 14 Noroeste 36 Oeste 0 -- -- 42
2019-07-29 15:00:00 22.3 16 Noroeste 32 Noroeste 0 -- -- 44
2019-07-29 14:00:00 21.7 18 Noroeste 36 Oeste 0 -- -- 44
2019-07-29 13:00:00 21.1 14 Oeste 28 Oeste 0 -- -- 48
2019-07-29 12:00:00 19.8 17 Oeste 30 Noroeste 0 -- -- 55
2019-07-29 11:00:00 17.9 19 Noroeste 29 Oeste 0 -- -- 63
2019-07-29 10:00:00 17 12 Noroeste 19 Noroeste 0 -- -- 65
2019-07-29 09:00:00 14.2 7 Noroeste 12 Oeste 0 -- -- 75
2019-07-29 08:00:00 9.3 7 Noroeste 11 Noroeste 0 -- -- 88
2019-07-29 07:00:00 7.5 5 Noroeste 9 Noroeste 0 -- -- 87
2019-07-29 06:00:00 7.7 6 Noroeste 10 Oeste 0 -- -- 87
2019-07-29 05:00:00 8.9 3 Nordeste 5 Nordeste 0 -- -- 82
2019-07-29 04:00:00 9.6 3 Nordeste 6 Nordeste 0 -- -- 76
2019-07-29 03:00:00 10.5 0 Calma 6 Nordeste 0 -- -- 78
2019-07-29 02:00:00 11.3 4 Este 6 Nordeste 0 -- -- 74
2019-07-29 01:00:00 11.7 3 Este 5 Este 0 -- -- 71
2019-07-29 00:00:00 12.7 2 Este 3 Este 0 -- -- 62
2019-07-28 23:00:00 14.8 0 Calma 4 Sudoeste 0 -- -- 55
2019-07-28 22:00:00 17.8 3 Sudoeste 10 Oeste 0 -- -- 50
2019-07-28 21:00:00 22.7 7 Oeste 17 Noroeste 0 -- -- 39
2019-07-28 20:00:00 22.9 15 Noroeste 23 Noroeste 0 -- -- 40
2019-07-28 19:00:00 23.2 12 Noroeste 29 Noroeste 0 -- -- 34
2019-07-28 18:00:00 23 16 Oeste 29 Oeste 0 -- -- 34
2019-07-28 17:00:00 22.2 15 Noroeste 28 Noroeste 0 -- -- 37
2019-07-28 16:00:00 21.4 10 Noroeste 27 Oeste 0 -- -- 42
2019-07-28 15:00:00 20 12 Oeste 24 Noroeste 0 -- -- 50
2019-07-28 14:00:00 18.7 10 Noroeste 28 Oeste 0 -- -- 53
2019-07-28 13:00:00 17.6 8 Sudoeste 19 Noroeste 0 -- -- 57
2019-07-28 12:00:00 15.8 7 Oeste 14 Oeste 0 -- -- 64
2019-07-28 11:00:00 13.9 6 Noroeste 13 Noroeste 0 -- -- 76
2019-07-28 10:00:00 12.2 3 Norte 10 Noroeste 0 -- -- 86
2019-07-28 09:00:00 10 2 Norte 5 Nordeste 0 -- -- 100
2019-07-28 08:00:00 8.9 0 Calma 9 Noroeste 0 -- -- 100
2019-07-28 07:00:00 6.3 0 Calma -- -- 0 -- -- 97
2019-07-28 06:00:00 7.3 0 Calma 8 Oeste 0 -- -- 98
2019-07-28 05:00:00 7.2 8 Oeste 10 Oeste 0 -- -- 98
2019-07-28 04:00:00 7.5 6 Oeste 9 Noroeste 0 -- -- 99
2019-07-28 03:00:00 7.6 3 Noroeste 8 Norte 0 -- -- 96
2019-07-28 02:00:00 8.2 0 Calma -- -- 0 -- -- 95
2019-07-28 01:00:00 8.9 0 Calma 8 Este 0 -- -- 91
2019-07-28 00:00:00 10.4 0 Calma 8 Nordeste 0 -- -- 87
2019-07-27 23:00:00 12.4 6 Nordeste 14 Nordeste 0 -- -- 80
2019-07-26 12:00:00 -- -- -- -- -- -- -- -- --
2019-07-26 11:00:00 -- -- -- -- -- -- -- -- --
2019-07-26 10:00:00 -- -- -- -- -- -- -- -- --
2019-07-26 09:00:00 -- -- -- -- -- -- -- -- --
2019-07-26 08:00:00 16.2 6 Sudeste 15 Este 0.2 -- -- 92
2019-07-26 07:00:00 16.2 10 Sudeste 14 Sudeste 0 -- -- 91
2019-07-26 06:00:00 16.2 5 Sur 15 Sudeste 0 -- -- 90
2019-07-26 05:00:00 16.4 7 Sur 10 Sur 0 -- -- 90
2019-07-26 04:00:00 16.4 8 Sur 12 Sur 0 -- -- 89
2019-07-26 03:00:00 16.8 5 Sur 12 Sur 0 -- -- 87
2019-07-26 02:00:00 17.9 7 Sur 14 Sur 0 -- -- 81
2019-07-26 01:00:00 19.3 6 Este 19 Sudeste 0 -- -- 72
2019-07-26 00:00:00 21.3 6 Este 12 Sudeste 0 -- -- 51
2019-07-25 23:00:00 21.9 5 Norte 21 Noroeste 0 -- -- 51
2019-07-25 22:00:00 22.7 11 Norte 33 Noroeste 0 -- -- 49
2019-07-25 21:00:00 25.2 17 Noroeste 35 Oeste 0 -- -- 42
2019-07-25 20:00:00 28.3 18 Noroeste 36 Oeste 0 -- -- 33
2019-07-25 19:00:00 28.8 21 Noroeste 40 Oeste 0 -- -- 32
2019-07-25 18:00:00 30.1 26 Oeste 41 Noroeste 0 -- -- 26
2019-07-25 17:00:00 29.7 21 Oeste 43 Oeste 0 -- -- 26
2019-07-25 16:00:00 30.3 26 Oeste 46 Oeste 0 -- -- 19
2019-07-25 15:00:00 29.9 22 Oeste 45 Oeste 0 -- -- 26
2019-07-25 14:00:00 29.6 22 Oeste 39 Oeste 0 -- -- 28
2019-07-25 13:00:00 28 20 Sudoeste 33 Oeste 0 -- -- 30
2019-07-25 12:00:00 26.2 12 Sudoeste 26 Sudoeste 0 -- -- 37
2019-07-25 11:00:00 24.9 15 Oeste 26 Noroeste 0 -- -- 40
2019-07-25 10:00:00 22.6 14 Noroeste 22 Noroeste 0 -- -- 48
2019-07-25 09:00:00 20.3 4 Oeste 9 Oeste 0 -- -- 55
2019-07-25 08:00:00 16.8 0 Calma 13 Noroeste 0 -- -- 69
2019-07-25 07:00:00 15.7 9 Noroeste 12 Noroeste 0 -- -- 72
2019-07-25 06:00:00 16.2 0 Calma 5 Oeste 0 -- -- 67
2019-07-25 05:00:00 16.3 0 Calma 9 Sudeste 0 -- -- 65
2019-07-25 04:00:00 16.8 0 Calma 8 Noroeste 0 -- -- 62
2019-07-25 03:00:00 16.7 4 Norte 6 Nordeste 0 -- -- 61
2019-07-25 02:00:00 17.9 4 Norte 8 Noroeste 0 -- -- 57
2019-07-25 01:00:00 19.4 2 Oeste 3 Oeste 0 -- -- 53
2019-07-25 00:00:00 20 3 Noroeste 5 Noroeste 0 -- -- 51
2019-07-24 23:00:00 22.2 4 Noroeste 6 Noroeste 0 -- -- 45
2019-07-24 22:00:00 26.6 5 Noroeste 18 Noroeste 0 -- -- 35
2019-07-24 21:00:00 30.1 13 Noroeste 29 Oeste 0 -- -- 30
2019-07-24 20:00:00 31.8 21 Oeste 34 Oeste 0 -- -- 27
2019-07-24 19:00:00 32.6 17 Oeste 39 Sudoeste 0 -- -- 27
2019-07-24 18:00:00 32.2 19 Oeste 40 Oeste 0 -- -- 29
2019-07-24 17:00:00 32.4 22 Oeste 41 Oeste 0 -- -- 27
2019-07-24 16:00:00 31.7 21 Oeste 43 Oeste 0 -- -- 29
2019-07-24 15:00:00 31.3 19 Oeste 38 Oeste 0 -- -- 32
2019-07-24 14:00:00 30.2 18 Oeste 37 Sudeste 0 -- -- 34
2019-07-24 13:00:00 28.8 13 Sur 28 Sudeste 0 -- -- 40
2019-07-24 12:00:00 26.8 12 Sur 23 Sudeste 0 -- -- 43
2019-07-24 11:00:00 25.3 9 Sudeste 18 Sur 0 -- -- 48
2019-07-24 10:00:00 23.4 9 Sudeste 13 Sudeste 0 -- -- 50
2019-07-24 09:00:00 19.9 5 Nordeste 13 Nordeste 0 -- -- 59
2019-07-24 08:00:00 18 9 Nordeste 12 Nordeste 0 -- -- 65
2019-07-24 07:00:00 17.3 11 Nordeste 14 Nordeste 0 -- -- 67
2019-07-24 06:00:00 17.4 10 Nordeste 12 Nordeste 0 -- -- 68
2019-07-24 05:00:00 17.4 8 Nordeste 12 Este 0 -- -- 71
2019-07-24 04:00:00 17.7 7 Nordeste 13 Nordeste 0 -- -- 71
2019-07-24 03:00:00 18.2 10 Este 19 Nordeste 0 -- -- 70
2019-07-24 02:00:00 18.9 12 Este 22 Sudeste 0 -- -- 69
2019-07-24 01:00:00 20 10 Sudeste 23 Sudeste 0 -- -- 66
2019-07-24 00:00:00 21.3 15 Sur 37 Sur 0 -- -- 58
2019-07-23 23:00:00 22.1 15 Este 22 Este 0 -- -- 53
2019-07-23 22:00:00 25 6 Sudeste 48 Sur 0 -- -- 45
2019-07-23 21:00:00 27.7 13 Sur 26 Sur 0 -- -- 37
2019-07-23 20:00:00 31.6 10 Sudoeste 27 Oeste 0 -- -- 28
2019-07-23 19:00:00 32.1 13 Oeste 33 Oeste 0 -- -- 28
2019-07-23 18:00:00 31.8 19 Oeste 37 Sudoeste 0 -- -- 28
2019-07-23 17:00:00 31.3 10 Sudoeste 28 Oeste 0 -- -- 30
2019-07-23 16:00:00 30 17 Oeste 33 Oeste 0 -- -- 34
2019-07-23 15:00:00 29.9 14 Oeste 38 Oeste 0 -- -- 34
2019-07-23 14:00:00 29.4 22 Oeste 35 Oeste 0 -- -- 36
2019-07-23 13:00:00 28.2 18 Oeste 29 Oeste 0 -- -- 37
2019-07-23 12:00:00 27.8 10 Noroeste 22 Oeste 0 -- -- 35
2019-07-23 11:00:00 26.3 4 Este 21 Nordeste 0 -- -- 44
2019-07-23 10:00:00 23.2 5 Oeste 19 Oeste 0 -- -- 55
2019-07-23 09:00:00 20.3 3 Sur 9 Noroeste 0 -- -- 66
2019-07-23 08:00:00 17.1 7 Noroeste 32 Oeste 0 -- -- 76
2019-07-23 07:00:00 16.6 12 Nordeste 16 Nordeste 0 -- -- 75
2019-07-23 06:00:00 18.5 6 Nordeste 14 Este 0 -- -- 66
2019-07-23 05:00:00 17.8 9 Este 14 Nordeste 0 -- -- 74
2019-07-23 04:00:00 18.3 7 Este 17 Nordeste 0 -- -- 73
2019-07-23 03:00:00 20.2 6 Noroeste 49 Oeste 0 -- -- 62
2019-07-23 02:00:00 19.5 8 Este 17 Nordeste 0 -- -- 69
2019-07-23 01:00:00 20.3 6 Norte 23 Norte 0 -- -- 60
2019-07-23 00:00:00 19.2 13 Nordeste 31 Nordeste 0 -- -- 69
2019-07-22 23:00:00 19.1 17 Norte 36 Noroeste 0 -- -- 73
2019-07-22 22:00:00 18.9 13 Norte 31 Noroeste 0.4 -- -- 79
2019-07-22 21:00:00 19.2 12 Noroeste 50 Oeste 0.4 -- -- 79
2019-07-22 20:00:00 30.5 16 Sudeste 39 Sudeste 0 -- -- 32
2019-07-22 19:00:00 33.5 6 Este 12 Este 0 -- -- 27
2019-07-22 18:00:00 32.8 7 Este 26 Sur 0 -- -- 30
2019-07-22 17:00:00 32.8 11 Sur 23 Sur 0 -- -- 30
2019-07-22 16:00:00 33.2 11 Sudeste 26 Sudeste 0 -- -- 30
2019-07-22 15:00:00 32.7 11 Sur 20 Sur 0 -- -- 31
2019-07-22 14:00:00 30.8 10 Sudeste 23 Sudeste 0 -- -- 34
2019-07-22 13:00:00 29.7 12 Sudeste 25 Sudeste 0 -- -- 38
2019-07-22 12:00:00 27.5 12 Sudeste 22 Sudeste 0 -- -- 46
2019-07-22 11:00:00 25.7 13 Sudeste 27 Sudeste 0 -- -- 51
2019-07-22 10:00:00 23.4 12 Este 20 Este 0 -- -- 59
2019-07-22 09:00:00 20.3 14 Este 21 Este 0 -- -- 72
2019-07-22 08:00:00 17.2 12 Este 18 Este 0 -- -- 86
2019-07-22 07:00:00 15.8 12 Este 19 Este 0 -- -- 91
2019-07-22 06:00:00 16 14 Este 19 Este 0 -- -- 91
2019-07-22 05:00:00 16.2 14 Este 21 Este 0 -- -- 89
2019-07-22 04:00:00 16.5 14 Este 22 Este 0 -- -- 88
2019-07-22 03:00:00 16.9 16 Este 22 Este 0 -- -- 87
2019-07-22 02:00:00 17.5 13 Este 19 Este 0 -- -- 84
2019-07-22 01:00:00 18.2 12 Este 22 Este 0 -- -- 80
2019-07-22 00:00:00 18.8 12 Este 33 Este 0 -- -- 78
2019-07-21 23:00:00 19.7 20 Este 28 Este 0 -- -- 75
2019-07-21 22:00:00 22.1 14 Este 26 Este 0 -- -- 66
2019-07-21 21:00:00 25.4 18 Este 30 Este 0 -- -- 57
2019-07-21 20:00:00 30.6 11 Sudeste 18 Sudeste 0 -- -- 28
2019-07-21 19:00:00 30.7 10 Sudeste 23 Sudeste 0 -- -- 31
2019-07-21 18:00:00 30.4 12 Sudeste 24 Sudeste 0 -- -- 34
2019-07-21 17:00:00 30.2 12 Sur 24 Sudeste 0 -- -- 36
2019-07-21 16:00:00 29.2 8 Sur 25 Sur 0 -- -- 40
2019-07-21 15:00:00 28.2 8 Sur 21 Sur 0 -- -- 44
2019-07-21 14:00:00 26.9 11 Este 27 Este 0 -- -- 49
2019-07-21 13:00:00 25.3 9 Sudeste 19 Sudeste 0 -- -- 53
2019-07-21 12:00:00 23.4 11 Sudeste 18 Sudeste 0 -- -- 60
2019-07-21 11:00:00 20.9 13 Este 22 Este 0 -- -- 67
2019-07-21 10:00:00 19.2 15 Este 23 Este 0 -- -- 73
2019-07-21 09:00:00 16.9 14 Este 22 Este 0 -- -- 84
2019-07-21 08:00:00 14.8 13 Este 19 Este 0 -- -- 93
2019-07-21 07:00:00 13.9 11 Este 21 Este 0 -- -- 96
2019-07-21 06:00:00 14.1 13 Este 20 Este 0 -- -- 94
2019-07-21 05:00:00 14.4 13 Sudeste 26 Este 0 -- -- 91
2019-07-21 04:00:00 14.9 16 Este 24 Este 0 -- -- 89
2019-07-21 03:00:00 15.2 13 Este 20 Sudeste 0 -- -- 88
2019-07-21 02:00:00 15.6 12 Este 20 Este 0 -- -- 85
2019-07-21 01:00:00 16.2 8 Sudeste 24 Este 0 -- -- 83
2019-07-21 00:00:00 16.9 14 Sudeste 29 Este 0 -- -- 82